createdAt,value
2018-04-30T00:00:38.398Z,85.67
2018-04-30T00:03:05.945Z,85.59
2018-04-30T00:05:33.552Z,85.44
2018-04-30T00:08:01.078Z,85.76
2018-04-30T00:10:28.606Z,85.17
2018-04-30T00:12:56.164Z,84.94
2018-04-30T00:15:23.707Z,85.47
2018-04-30T00:17:51.292Z,85.21
2018-04-30T00:20:18.817Z,85.68
2018-04-30T00:22:46.389Z,84.99
2018-04-30T00:25:13.918Z,85.10
2018-04-30T00:27:41.474Z,84.50
2018-04-30T00:30:08.998Z,84.96
2018-04-30T00:32:36.554Z,84.93
2018-04-30T00:35:04.077Z,84.62
2018-04-30T00:37:31.631Z,84.69
2018-04-30T00:39:59.182Z,84.88
2018-04-30T00:42:26.758Z,84.74
2018-04-30T00:44:54.284Z,85.55
2018-04-30T00:47:21.839Z,86.01
2018-04-30T00:49:49.392Z,87.07
2018-04-30T00:52:16.947Z,86.86
2018-04-30T00:54:56.308Z,87.28
2018-04-30T00:57:23.899Z,87.45
2018-04-30T00:59:51.449Z,87.57
2018-04-30T01:02:18.982Z,87.58
2018-04-30T01:04:46.556Z,87.70
2018-04-30T01:07:14.111Z,87.94
2018-04-30T01:09:41.665Z,87.94
2018-04-30T01:12:09.193Z,88.16
2018-04-30T01:14:36.771Z,88.68
2018-04-30T01:17:04.317Z,87.27
2018-04-30T01:19:31.871Z,87.48
2018-04-30T01:21:59.422Z,87.80
2018-04-30T01:24:26.999Z,86.80
2018-04-30T01:26:54.525Z,86.69
2018-04-30T01:29:22.077Z,86.34
2018-04-30T01:31:49.580Z,87.04
2018-04-30T01:34:17.134Z,86.45
2018-04-30T01:36:44.689Z,86.33
2018-04-30T01:39:12.214Z,86.69
2018-04-30T01:41:39.810Z,86.72
2018-04-30T01:44:07.348Z,87.18
2018-04-30T01:46:35.038Z,88.26
2018-04-30T01:49:02.596Z,88.20
2018-04-30T01:51:30.175Z,88.54
2018-04-30T01:53:57.698Z,88.74
2018-04-30T01:56:25.284Z,87.88
2018-04-30T01:58:52.833Z,88.07
2018-04-30T02:01:20.382Z,88.16
2018-04-30T02:03:47.911Z,87.98
2018-04-30T02:06:15.463Z,88.18
2018-04-30T02:08:43.015Z,88.25
2018-04-30T02:11:10.623Z,88.07
2018-04-30T02:13:38.167Z,88.20
2018-04-30T02:16:05.749Z,88.43
2018-04-30T02:18:33.274Z,88.70
2018-04-30T02:21:00.805Z,89.03
2018-04-30T02:23:29.093Z,89.07
2018-04-30T02:25:56.631Z,89.13
2018-04-30T02:28:24.381Z,88.51
2018-04-30T02:30:51.909Z,88.78
2018-04-30T02:33:19.490Z,89.45
2018-04-30T02:35:47.034Z,89.60
2018-04-30T02:38:14.591Z,89.14
2018-04-30T02:40:42.117Z,89.35
2018-04-30T02:43:09.697Z,89.35
2018-04-30T02:45:37.253Z,89.61
2018-04-30T02:48:04.798Z,90.08
2018-04-30T02:50:32.401Z,89.24
2018-04-30T02:52:59.932Z,88.49
2018-04-30T02:55:27.481Z,88.68
2018-04-30T02:57:55.034Z,88.72
2018-04-30T03:00:22.586Z,87.97
2018-04-30T03:02:50.113Z,87.76
2018-04-30T03:05:17.691Z,87.93
2018-04-30T03:07:45.216Z,86.97
2018-04-30T03:10:12.768Z,87.29
2018-04-30T03:12:40.299Z,87.31
2018-04-30T03:15:07.847Z,87.13
2018-04-30T03:17:35.373Z,86.80
2018-04-30T03:20:02.930Z,87.76
2018-04-30T03:22:30.464Z,87.97
2018-04-30T03:24:57.965Z,87.38
2018-04-30T03:27:25.542Z,87.33
2018-04-30T03:29:53.118Z,87.47
2018-04-30T03:32:20.661Z,87.03
2018-04-30T03:34:48.191Z,87.22
2018-04-30T03:37:15.741Z,86.70
2018-04-30T03:39:43.272Z,86.08
2018-04-30T03:42:10.823Z,85.64
2018-04-30T03:44:38.350Z,86.13
2018-04-30T03:47:05.900Z,85.85
2018-04-30T03:49:33.413Z,85.43
2018-04-30T03:52:00.963Z,85.83
2018-04-30T03:54:29.334Z,85.71
2018-04-30T03:56:56.861Z,85.83
2018-04-30T03:59:24.466Z,85.61
2018-04-30T04:02:03.667Z,85.73
2018-04-30T04:07:35.970Z,86.22
2018-04-30T04:10:03.542Z,86.80
2018-04-30T04:12:31.130Z,86.50
2018-04-30T04:14:59.429Z,86.62
2018-04-30T04:17:26.955Z,87.47
2018-04-30T04:19:54.502Z,86.84
2018-04-30T04:22:22.030Z,86.58
2018-04-30T04:24:49.588Z,86.37
2018-04-30T04:27:17.139Z,86.13
2018-04-30T04:29:44.742Z,86.65
2018-04-30T04:32:12.296Z,86.65
2018-04-30T04:34:39.873Z,87.67
2018-04-30T04:37:07.426Z,88.98
2018-04-30T04:39:34.978Z,89.73
2018-04-30T04:42:02.553Z,89.44
2018-04-30T04:44:30.132Z,88.67
2018-04-30T04:46:57.652Z,88.70
2018-04-30T04:49:25.182Z,88.83
2018-04-30T04:51:52.762Z,89.30
2018-04-30T04:54:20.314Z,88.95
2018-04-30T04:56:47.866Z,89.44
2018-04-30T04:59:15.415Z,89.23
2018-04-30T05:01:42.968Z,89.46
2018-04-30T05:04:10.512Z,89.63
2018-04-30T05:06:38.101Z,89.78
2018-04-30T05:09:05.706Z,89.71
2018-04-30T05:11:33.237Z,89.92
2018-04-30T05:14:00.806Z,89.48
2018-04-30T05:16:28.322Z,89.88
2018-04-30T05:18:55.887Z,88.95
2018-04-30T05:21:23.417Z,89.12
2018-04-30T05:23:50.990Z,88.91
2018-04-30T05:26:18.541Z,89.47
2018-04-30T05:28:46.098Z,89.19
2018-04-30T05:31:13.645Z,89.25
2018-04-30T05:33:41.199Z,89.16
2018-04-30T05:36:08.726Z,89.87
2018-04-30T05:38:36.303Z,88.86
2018-04-30T05:41:03.825Z,88.50
2018-04-30T05:43:34.099Z,87.76
2018-04-30T05:46:03.417Z,87.69
2018-04-30T05:48:30.962Z,87.51
2018-04-30T05:50:58.514Z,87.95
2018-04-30T05:53:26.060Z,87.32
2018-04-30T05:55:53.641Z,86.77
2018-04-30T05:58:21.174Z,86.27
2018-04-30T06:00:48.749Z,86.17
2018-04-30T06:03:16.300Z,85.42
2018-04-30T06:05:43.837Z,85.66
2018-04-30T06:08:11.376Z,85.97
2018-04-30T06:10:38.984Z,86.18
2018-04-30T06:13:06.505Z,85.93
2018-04-30T06:15:37.368Z,85.56
2018-04-30T06:18:08.176Z,85.86
2018-04-30T06:20:37.644Z,85.57
2018-04-30T06:23:07.710Z,85.31
2018-04-30T06:25:37.625Z,84.91
2018-04-30T06:28:06.128Z,84.38
2018-04-30T06:30:35.033Z,84.08
2018-04-30T06:33:02.727Z,82.63
2018-04-30T06:35:30.671Z,83.57
2018-04-30T06:37:58.410Z,83.40
2018-04-30T06:40:29.454Z,83.13
2018-04-30T06:42:59.368Z,83.72
2018-04-30T06:45:29.942Z,84.25
2018-04-30T06:47:59.212Z,83.83
2018-04-30T06:50:26.945Z,83.07
2018-04-30T06:52:55.865Z,82.85
2018-04-30T06:55:25.297Z,83.29
2018-04-30T06:57:56.945Z,82.96
2018-04-30T07:00:25.450Z,82.91
2018-04-30T07:02:56.576Z,83.14
2018-04-30T07:05:24.308Z,82.53
2018-04-30T07:07:54.766Z,81.74
2018-04-30T07:10:22.636Z,82.90
2018-04-30T07:12:50.316Z,81.87
2018-04-30T07:15:18.019Z,82.05
2018-04-30T07:17:45.683Z,81.47
2018-04-30T07:20:13.409Z,80.15
2018-04-30T07:22:41.047Z,80.22
2018-04-30T07:25:08.579Z,80.87
2018-04-30T07:27:39.105Z,80.75
2018-04-30T07:30:07.681Z,80.98
2018-04-30T07:32:36.108Z,79.96
2018-04-30T07:35:03.959Z,78.56
2018-04-30T07:37:31.487Z,79.09
2018-04-30T07:39:59.062Z,78.82
2018-04-30T07:42:26.711Z,78.30
2018-04-30T07:44:54.259Z,78.70
2018-04-30T07:47:24.899Z,78.10
2018-04-30T07:49:52.802Z,76.34
2018-04-30T07:52:20.324Z,77.15
2018-04-30T07:54:47.878Z,78.17
2018-04-30T07:57:15.490Z,76.34
2018-04-30T07:59:43.097Z,75.23
2018-04-30T08:02:10.633Z,75.71
2018-04-30T08:04:38.684Z,75.48
2018-04-30T08:07:07.183Z,75.69
2018-04-30T08:09:36.153Z,74.93
2018-04-30T08:12:03.892Z,75.01
2018-04-30T08:14:31.447Z,75.23
2018-04-30T08:16:59.902Z,73.52
2018-04-30T08:19:27.473Z,73.79
2018-04-30T08:21:55.125Z,72.84
2018-04-30T08:24:23.067Z,72.50
2018-04-30T08:26:51.402Z,72.50
2018-04-30T08:29:19.059Z,71.65
2018-04-30T08:31:46.612Z,72.07
2018-04-30T08:34:14.136Z,71.47
2018-04-30T08:36:43.916Z,70.78
2018-04-30T08:39:12.881Z,71.26
2018-04-30T08:41:40.470Z,70.93
2018-04-30T08:44:09.097Z,70.65
2018-04-30T08:46:40.008Z,71.99
2018-04-30T08:49:07.793Z,70.89
2018-04-30T08:51:35.635Z,71.27
2018-04-30T08:54:04.208Z,70.21
2018-04-30T08:56:31.804Z,70.66
2018-04-30T08:58:59.336Z,71.25
2018-04-30T09:01:26.886Z,69.30
2018-04-30T09:03:54.824Z,69.49
2018-04-30T09:06:22.592Z,70.88
2018-04-30T09:08:50.222Z,71.02
2018-04-30T09:11:17.742Z,70.54
2018-04-30T09:13:45.325Z,69.64
2018-04-30T09:16:12.854Z,69.84
2018-04-30T09:18:40.779Z,69.90
2018-04-30T09:21:08.327Z,69.09
2018-04-30T09:23:35.890Z,67.99
2018-04-30T09:26:03.435Z,70.26
2018-04-30T09:28:31.013Z,69.33
2018-04-30T09:30:58.564Z,69.97
2018-04-30T09:33:26.117Z,67.49
2018-04-30T09:35:53.715Z,68.20
2018-04-30T09:38:21.297Z,70.25
2018-04-30T09:40:49.697Z,69.31
2018-04-30T09:43:17.590Z,69.82
2018-04-30T09:45:45.252Z,68.89
2018-04-30T09:48:12.780Z,69.40
2018-04-30T09:50:42.690Z,68.02
2018-04-30T09:53:11.412Z,68.95
2018-04-30T09:55:39.062Z,69.95
2018-04-30T09:58:07.440Z,69.36
2018-04-30T10:00:35.218Z,68.35
2018-04-30T10:03:02.743Z,68.41
2018-04-30T10:05:31.154Z,68.07
2018-04-30T10:07:58.746Z,69.71
2018-04-30T10:10:26.737Z,69.47
2018-04-30T10:12:54.655Z,69.77
2018-04-30T10:15:22.306Z,69.91
2018-04-30T10:17:50.099Z,70.78
2018-04-30T10:20:17.753Z,71.32
2018-04-30T10:22:45.285Z,71.83
2018-04-30T10:25:12.812Z,72.33
2018-04-30T10:27:40.362Z,71.73
2018-04-30T10:30:07.917Z,75.67
2018-04-30T10:32:35.469Z,73.52
2018-04-30T10:35:04.116Z,73.33
2018-04-30T10:37:31.773Z,70.83
2018-04-30T10:39:59.305Z,71.17
2018-04-30T10:42:26.854Z,72.09
2018-04-30T10:44:54.381Z,69.21
2018-04-30T10:47:21.934Z,71.77
2018-04-30T10:49:50.602Z,69.08
2018-04-30T10:52:19.687Z,69.14
2018-04-30T10:54:48.096Z,70.30
2018-04-30T10:57:17.368Z,71.22
2018-04-30T10:59:44.946Z,73.13
2018-04-30T11:02:12.497Z,72.88
2018-04-30T11:04:40.180Z,72.81
2018-04-30T11:07:08.452Z,73.81
2018-04-30T11:09:36.004Z,72.73
2018-04-30T11:12:03.658Z,73.34
2018-04-30T11:14:31.207Z,76.72
2018-04-30T11:16:58.773Z,75.25
2018-04-30T11:19:26.956Z,74.82
2018-04-30T11:21:59.322Z,74.64
2018-04-30T11:24:27.165Z,73.57
2018-04-30T11:26:55.770Z,72.83
2018-04-30T11:29:24.392Z,72.78
2018-04-30T11:31:55.805Z,70.77
2018-04-30T11:34:23.324Z,71.93
2018-04-30T11:36:54.872Z,70.40
2018-04-30T11:39:25.553Z,70.57
2018-04-30T11:41:53.861Z,70.78
2018-04-30T11:44:21.795Z,69.70
2018-04-30T11:46:50.501Z,69.33
2018-04-30T11:49:19.767Z,68.18
2018-04-30T11:51:48.540Z,68.47
2018-04-30T11:54:16.271Z,67.60
2018-04-30T11:56:47.771Z,65.97
2018-04-30T11:59:16.059Z,66.01
2018-04-30T12:01:44.857Z,65.65
2018-04-30T12:04:14.567Z,66.74
2018-04-30T12:06:42.410Z,66.72
2018-04-30T12:09:10.305Z,67.82
2018-04-30T12:11:37.911Z,65.85
2018-04-30T12:14:05.716Z,65.41
2018-04-30T12:16:33.339Z,66.50
2018-04-30T12:19:01.151Z,68.37
2018-04-30T12:21:31.631Z,66.41
2018-04-30T12:24:02.065Z,66.12
2018-04-30T12:26:29.973Z,65.04
2018-04-30T12:28:57.834Z,63.84
2018-04-30T12:31:29.530Z,63.49
2018-04-30T12:33:57.282Z,61.39
2018-04-30T12:36:26.255Z,61.47
2018-04-30T12:38:53.989Z,62.89
2018-04-30T12:41:21.563Z,61.69
2018-04-30T12:43:49.222Z,63.94
2018-04-30T12:46:16.714Z,61.20
2018-04-30T12:48:44.348Z,62.00
2018-04-30T12:51:11.895Z,61.69
2018-04-30T12:53:39.425Z,63.66
2018-04-30T12:56:07.017Z,62.58
2018-04-30T12:58:34.602Z,62.13
2018-04-30T13:01:02.185Z,62.62
2018-04-30T13:03:29.707Z,62.01
2018-04-30T13:05:57.308Z,62.90
2018-04-30T13:08:24.925Z,64.35
2018-04-30T13:10:52.587Z,68.01
2018-04-30T13:13:20.148Z,65.67
2018-04-30T13:15:47.717Z,66.40
2018-04-30T13:18:15.338Z,67.50
2018-04-30T13:20:42.901Z,68.92
2018-04-30T13:23:10.424Z,68.78
2018-04-30T13:25:38.045Z,68.59
2018-04-30T13:28:05.595Z,66.93
2018-04-30T13:30:33.175Z,66.75
2018-04-30T13:33:00.712Z,64.50
2018-04-30T13:35:28.635Z,62.49
2018-04-30T13:37:59.456Z,64.59
2018-04-30T13:40:32.252Z,66.92
2018-04-30T13:43:00.261Z,69.92
2018-04-30T13:45:27.818Z,68.59
2018-04-30T13:47:55.655Z,66.23
2018-04-30T13:50:23.781Z,67.52
2018-04-30T13:52:55.960Z,68.29
2018-04-30T13:55:23.510Z,68.08
2018-04-30T13:57:51.451Z,67.32
2018-04-30T14:00:21.031Z,66.92
2018-04-30T14:02:48.727Z,65.92
2018-04-30T14:05:17.342Z,65.23
2018-04-30T14:07:45.984Z,65.71
2018-04-30T14:10:13.524Z,65.04
2018-04-30T14:12:41.523Z,64.99
2018-04-30T14:15:09.100Z,65.31
2018-04-30T14:17:36.975Z,66.97
2018-04-30T14:20:04.775Z,63.55
2018-04-30T14:22:32.392Z,63.66
2018-04-30T14:25:01.177Z,61.63
2018-04-30T14:27:33.268Z,63.80
2018-04-30T14:30:03.586Z,62.67
2018-04-30T14:32:35.181Z,61.99
2018-04-30T14:35:06.357Z,61.02
2018-04-30T14:37:39.661Z,58.70
2018-04-30T14:40:15.855Z,58.48
2018-04-30T14:42:48.556Z,58.14
2018-04-30T14:45:20.182Z,59.43
2018-04-30T14:47:50.963Z,58.11
2018-04-30T14:50:21.384Z,57.22
2018-04-30T14:52:52.557Z,58.09
2018-04-30T14:55:23.281Z,56.41
2018-04-30T14:57:56.825Z,56.07
2018-04-30T15:00:27.286Z,57.02
2018-04-30T15:03:00.493Z,56.18
2018-04-30T15:05:31.466Z,55.28
2018-04-30T15:08:02.778Z,56.22
2018-04-30T15:10:35.196Z,57.19
2018-04-30T15:13:06.774Z,57.39
2018-04-30T15:15:38.370Z,55.94
2018-04-30T15:18:09.746Z,57.11
2018-04-30T15:20:40.455Z,56.60
2018-04-30T15:23:12.348Z,56.88
2018-04-30T15:25:45.657Z,56.49
2018-04-30T15:28:17.037Z,57.61
2018-04-30T15:30:47.746Z,56.94
2018-04-30T15:33:18.010Z,57.79
2018-04-30T15:35:45.644Z,57.05
2018-04-30T15:38:13.247Z,58.01
2018-04-30T15:40:41.698Z,56.28
2018-04-30T15:43:09.273Z,56.24
2018-04-30T15:45:41.552Z,57.33
2018-04-30T15:48:11.370Z,56.27
2018-04-30T15:50:39.208Z,55.13
2018-04-30T15:53:10.091Z,55.10
2018-04-30T15:55:39.270Z,55.15
2018-04-30T15:58:07.138Z,56.34
2018-04-30T16:00:35.093Z,53.81
2018-04-30T16:03:03.374Z,53.57
2018-04-30T16:05:32.565Z,53.88
2018-04-30T16:08:00.978Z,53.64
2018-04-30T16:10:28.574Z,53.18
2018-04-30T16:12:58.776Z,53.18
2018-04-30T16:15:29.328Z,51.75
2018-04-30T16:18:00.610Z,52.17
2018-04-30T16:20:30.158Z,52.54
2018-04-30T16:22:59.243Z,53.15
2018-04-30T16:25:27.088Z,53.89
2018-04-30T16:27:56.885Z,53.46
2018-04-30T16:30:24.765Z,53.72
2018-04-30T16:32:52.794Z,52.96
2018-04-30T16:35:20.476Z,54.37
2018-04-30T16:37:48.054Z,54.20
2018-04-30T16:40:20.962Z,54.96
2018-04-30T16:42:52.831Z,56.03
2018-04-30T16:45:22.552Z,57.47
2018-04-30T16:47:55.373Z,56.37
2018-04-30T16:50:28.076Z,56.18
2018-04-30T16:53:05.458Z,56.91
2018-04-30T16:55:33.329Z,57.21
2018-04-30T16:58:02.323Z,58.10
2018-04-30T17:00:33.850Z,58.35
2018-04-30T17:03:05.603Z,59.10
2018-04-30T17:05:36.146Z,59.24
2018-04-30T17:08:08.282Z,59.56
2018-04-30T17:10:39.356Z,60.13
2018-04-30T17:13:11.234Z,59.76
2018-04-30T17:15:44.857Z,60.35
2018-04-30T17:18:17.312Z,60.48
2018-04-30T17:20:48.793Z,61.01
2018-04-30T17:23:19.946Z,60.39
2018-04-30T17:25:50.345Z,60.24
2018-04-30T17:28:21.367Z,60.63
2018-04-30T17:30:52.297Z,60.47
2018-04-30T17:33:23.703Z,58.95
2018-04-30T17:35:54.833Z,59.78
2018-04-30T17:38:25.519Z,59.75
2018-04-30T17:40:55.877Z,60.07
2018-04-30T17:43:27.108Z,60.66
2018-04-30T17:45:58.720Z,60.37
2018-04-30T17:48:30.763Z,59.86
2018-04-30T17:51:03.694Z,60.45
2018-04-30T17:53:35.915Z,60.90
2018-04-30T17:56:09.588Z,61.55
2018-04-30T17:58:40.300Z,61.85
2018-04-30T18:01:15.062Z,61.90
2018-04-30T18:03:47.423Z,61.16
2018-04-30T18:06:23.528Z,61.95
2018-04-30T18:08:56.145Z,61.91
2018-04-30T18:11:27.836Z,62.54
2018-04-30T18:13:58.765Z,62.70
2018-04-30T18:16:34.904Z,63.30
2018-04-30T18:19:06.806Z,64.07
2018-04-30T18:21:37.544Z,62.95
2018-04-30T18:24:12.016Z,63.48
2018-04-30T18:26:43.464Z,64.37
2018-04-30T18:29:14.351Z,63.61
2018-04-30T18:31:48.100Z,64.46
2018-04-30T18:34:18.825Z,64.12
2018-04-30T18:36:53.284Z,64.53
2018-04-30T18:39:25.379Z,65.38
2018-04-30T18:42:00.537Z,64.28
2018-04-30T18:44:32.814Z,65.19
2018-04-30T18:47:04.915Z,65.39
2018-04-30T18:49:44.022Z,64.76
2018-04-30T18:52:18.538Z,65.88
2018-04-30T18:54:52.545Z,66.21
2018-04-30T18:57:25.882Z,66.40
2018-04-30T19:00:00.180Z,66.50
2018-04-30T19:02:31.151Z,69.27
2018-04-30T19:04:59.356Z,69.20
2018-04-30T19:07:29.500Z,73.51
2018-04-30T19:09:57.862Z,74.84
2018-04-30T19:12:25.683Z,75.71
2018-04-30T19:14:53.459Z,77.38
2018-04-30T19:17:21.679Z,77.82
2018-04-30T19:19:51.521Z,78.18
2018-04-30T19:22:23.248Z,78.60
2018-04-30T19:24:53.669Z,78.09
2018-04-30T19:27:22.111Z,78.38
2018-04-30T19:29:50.799Z,77.63
2018-04-30T19:32:21.867Z,77.67
2018-04-30T19:34:49.559Z,77.74
2018-04-30T19:37:17.124Z,78.14
2018-04-30T19:39:44.642Z,77.18
2018-04-30T19:42:12.198Z,77.36
2018-04-30T19:44:39.776Z,77.77
2018-04-30T19:47:07.326Z,77.04
2018-04-30T19:49:36.398Z,77.83
2018-04-30T19:52:03.975Z,77.39
2018-04-30T19:54:35.018Z,77.50
2018-04-30T19:57:02.781Z,77.06
2018-04-30T19:59:31.302Z,77.85
2018-04-30T20:02:00.786Z,77.70
2018-04-30T20:04:32.383Z,77.88
2018-04-30T20:07:00.111Z,78.04
2018-04-30T20:09:29.197Z,78.22
2018-04-30T20:11:56.767Z,77.45
2018-04-30T20:14:28.173Z,77.23
2018-04-30T20:16:59.451Z,76.43
2018-04-30T20:19:30.612Z,75.83
2018-04-30T20:22:01.304Z,75.94
2018-04-30T20:24:32.131Z,74.70
2018-04-30T20:27:02.484Z,74.48
2018-04-30T20:29:36.431Z,73.13
2018-04-30T20:32:08.407Z,73.29
2018-04-30T20:34:38.708Z,72.36
2018-04-30T20:39:50.487Z,70.65
2018-04-30T20:42:24.494Z,71.20
2018-04-30T20:44:56.739Z,70.65
2018-04-30T20:47:28.576Z,71.58
2018-04-30T20:49:59.424Z,72.12
2018-04-30T20:52:31.298Z,71.87
2018-04-30T20:55:03.439Z,71.80
2018-04-30T20:57:35.656Z,71.56
2018-04-30T21:00:04.958Z,71.72
2018-04-30T21:02:36.336Z,71.71
2018-04-30T21:05:08.746Z,72.49
2018-04-30T21:07:39.291Z,72.43
2018-04-30T21:10:10.155Z,72.41
2018-04-30T21:12:37.914Z,72.95
2018-04-30T21:15:08.152Z,72.67
2018-04-30T21:17:39.031Z,72.04
2018-04-30T21:20:06.755Z,72.46
2018-04-30T21:22:36.217Z,72.53
2018-04-30T21:25:04.039Z,72.39
2018-04-30T21:27:34.614Z,72.45
2018-04-30T21:30:02.368Z,72.42
2018-04-30T21:32:29.871Z,72.29
2018-04-30T21:34:58.146Z,71.91
2018-04-30T21:37:27.829Z,71.60
2018-04-30T21:40:00.301Z,71.60
2018-04-30T21:42:28.023Z,72.08
2018-04-30T21:44:55.579Z,71.93
2018-04-30T21:47:24.395Z,72.64
2018-04-30T21:49:57.573Z,72.50
2018-04-30T21:52:27.902Z,73.50
2018-04-30T21:54:59.488Z,73.23
2018-04-30T21:57:31.264Z,73.69
2018-04-30T22:00:00.491Z,74.01
2018-04-30T22:02:30.904Z,74.09
2018-04-30T22:05:01.899Z,74.08
2018-04-30T22:07:30.323Z,73.69
2018-04-30T22:09:59.819Z,73.74
2018-04-30T22:12:30.022Z,73.25
2018-04-30T22:15:01.867Z,71.99
2018-04-30T22:17:32.437Z,72.71
2018-04-30T22:20:01.961Z,73.23
2018-04-30T22:22:33.116Z,73.34
2018-04-30T22:25:05.772Z,74.19
2018-04-30T22:27:33.926Z,74.22
2018-04-30T22:30:03.423Z,74.04
2018-04-30T22:32:31.529Z,74.54
2018-04-30T22:35:00.426Z,74.76
2018-04-30T22:37:29.399Z,75.26
2018-04-30T22:39:56.972Z,75.56
2018-04-30T22:42:27.826Z,74.85
2018-04-30T22:44:56.686Z,74.68
2018-04-30T22:47:25.685Z,75.09
2018-04-30T22:49:54.542Z,75.37
2018-04-30T22:52:24.452Z,75.75
2018-04-30T22:54:53.019Z,75.85
2018-04-30T22:57:22.215Z,76.18
2018-04-30T22:59:51.897Z,75.97
2018-04-30T23:02:21.001Z,75.54
2018-04-30T23:04:50.724Z,75.90
2018-04-30T23:07:22.305Z,76.29
2018-04-30T23:09:50.376Z,76.92
2018-04-30T23:12:18.737Z,76.90
2018-04-30T23:14:46.283Z,76.55
2018-04-30T23:17:13.811Z,76.42
2018-04-30T23:19:41.370Z,76.58
2018-04-30T23:22:08.919Z,76.64
2018-04-30T23:24:42.421Z,76.49
2018-04-30T23:27:09.945Z,76.79
2018-04-30T23:29:37.550Z,76.73
2018-04-30T23:32:05.220Z,76.46
2018-04-30T23:34:32.781Z,76.68
2018-04-30T23:37:00.689Z,76.98
2018-04-30T23:39:28.185Z,76.40
2018-04-30T23:41:55.756Z,76.76
2018-04-30T23:44:23.314Z,76.76
2018-04-30T23:46:50.864Z,76.61
2018-04-30T23:49:18.392Z,76.56
2018-04-30T23:51:45.945Z,75.80
2018-04-30T23:54:13.512Z,76.16
2018-04-30T23:56:41.047Z,75.81
2018-04-30T23:59:08.604Z,75.62
